createdAt,value
2019-01-17T00:01:18.009Z,17.30
2019-01-17T00:05:18.035Z,17.27
2019-01-17T00:07:18.055Z,17.27
2019-01-17T00:11:18.072Z,17.25
2019-01-17T00:13:18.023Z,17.25
2019-01-17T00:17:18.087Z,17.23
2019-01-17T00:19:18.058Z,17.23
2019-01-17T00:23:18.083Z,17.20
2019-01-17T00:25:18.055Z,17.19
2019-01-17T00:29:18.044Z,17.16
2019-01-17T00:31:18.040Z,17.17
2019-01-17T00:37:18.046Z,17.14
2019-01-17T00:39:18.026Z,17.13
2019-01-17T00:43:18.555Z,17.11
2019-01-17T00:45:18.102Z,17.11
2019-01-17T00:49:18.036Z,17.10
2019-01-17T00:51:18.054Z,17.07
2019-01-17T00:55:18.043Z,17.08
2019-01-17T00:57:18.072Z,17.07
2019-01-17T01:01:18.079Z,17.06
2019-01-17T01:03:18.055Z,17.03
2019-01-17T01:07:18.073Z,17.01
2019-01-17T01:09:18.072Z,17.02
2019-01-17T01:13:18.056Z,17.00
2019-01-17T01:17:18.106Z,16.99
2019-01-17T01:19:18.065Z,16.96
2019-01-17T01:23:18.062Z,16.94
2019-01-17T01:25:18.104Z,16.94
2019-01-17T01:29:18.061Z,16.92
2019-01-17T01:31:18.093Z,16.91
2019-01-17T01:37:18.070Z,16.88
2019-01-17T01:39:18.051Z,16.85
2019-01-17T01:43:18.090Z,16.85
2019-01-17T01:45:18.094Z,16.85
2019-01-17T01:49:18.101Z,16.84
2019-01-17T01:51:18.067Z,16.83
2019-01-17T01:55:18.116Z,16.80
2019-01-17T01:57:18.083Z,16.80
2019-01-17T02:01:18.107Z,16.78
2019-01-17T02:03:18.078Z,16.78
2019-01-17T02:07:18.126Z,16.76
2019-01-17T02:09:18.106Z,16.74
2019-01-17T02:13:18.068Z,16.73
2019-01-17T02:15:18.080Z,16.74
2019-01-17T02:19:18.122Z,16.71
2019-01-17T02:21:18.088Z,16.71
2019-01-17T02:25:18.086Z,16.70
2019-01-17T02:27:18.125Z,16.69
2019-01-17T02:31:18.091Z,16.66
2019-01-17T02:33:18.124Z,16.67
2019-01-17T02:37:18.105Z,16.65
2019-01-17T02:39:18.115Z,16.64
2019-01-17T02:43:18.134Z,16.62
2019-01-17T02:45:18.127Z,16.62
2019-01-17T02:49:18.142Z,16.60
2019-01-17T02:51:18.115Z,16.60
2019-01-17T02:55:18.104Z,16.58
2019-01-17T02:57:18.096Z,16.56
2019-01-17T03:01:18.148Z,16.55
2019-01-17T03:03:18.170Z,16.55
2019-01-17T03:07:18.125Z,16.53
2019-01-17T03:09:18.090Z,16.53
2019-01-17T03:13:18.153Z,16.52
2019-01-17T03:15:18.146Z,16.52
2019-01-17T03:19:18.112Z,16.50
2019-01-17T03:21:18.155Z,16.49
2019-01-17T03:25:18.121Z,16.49
2019-01-17T03:27:18.110Z,16.47
2019-01-17T03:31:18.121Z,16.47
2019-01-17T03:33:18.173Z,16.44
2019-01-17T03:37:18.113Z,16.44
2019-01-17T03:39:18.132Z,16.44
2019-01-17T03:43:18.125Z,16.41
2019-01-17T03:45:18.131Z,16.41
2019-01-17T03:49:18.120Z,16.42
2019-01-17T03:51:18.178Z,16.41
2019-01-17T03:55:18.149Z,16.39
2019-01-17T03:57:18.165Z,16.39
2019-01-17T04:01:18.132Z,16.37
2019-01-17T04:03:18.151Z,16.38
2019-01-17T04:07:18.172Z,16.35
2019-01-17T04:09:18.212Z,16.34
2019-01-17T04:13:18.224Z,16.35
2019-01-17T04:15:18.160Z,16.32
2019-01-17T04:19:18.186Z,16.34
2019-01-17T04:21:18.151Z,16.32
2019-01-17T04:25:18.181Z,16.30
2019-01-17T04:27:18.158Z,16.29
2019-01-17T04:31:18.153Z,16.26
2019-01-17T04:33:18.181Z,16.21
2019-01-17T04:37:18.191Z,16.24
2019-01-17T04:39:18.171Z,16.35
2019-01-17T04:43:18.335Z,16.41
2019-01-17T04:45:18.195Z,16.42
2019-01-17T04:49:18.237Z,16.52
2019-01-17T04:51:18.366Z,16.62
2019-01-17T04:55:18.324Z,16.70
2019-01-17T04:57:18.174Z,16.79
2019-01-17T05:01:18.183Z,16.95
2019-01-17T05:03:18.210Z,17.03
2019-01-17T05:07:18.369Z,17.16
2019-01-17T05:09:18.373Z,17.23
2019-01-17T05:13:18.224Z,17.40
2019-01-17T05:15:18.354Z,17.46
2019-01-17T05:19:18.319Z,17.60
2019-01-17T05:21:18.173Z,17.68
2019-01-17T05:25:18.360Z,17.85
2019-01-17T05:27:18.189Z,17.93
2019-01-17T05:31:21.162Z,18.04
2019-01-17T05:33:18.168Z,18.08
2019-01-17T05:37:18.194Z,18.19
2019-01-17T05:39:18.183Z,18.25
2019-01-17T05:43:18.409Z,18.33
2019-01-17T05:45:18.343Z,18.34
2019-01-17T05:49:18.381Z,18.36
2019-01-17T05:51:18.218Z,18.33
2019-01-17T05:55:20.079Z,18.29
2019-01-17T05:57:18.269Z,18.24
2019-01-17T06:01:18.381Z,18.21
2019-01-17T06:03:18.429Z,18.16
2019-01-17T06:07:18.371Z,18.19
2019-01-17T06:09:18.362Z,18.13
2019-01-17T06:13:20.910Z,18.06
2019-01-17T06:15:18.376Z,18.06
2019-01-17T06:19:18.255Z,18.01
2019-01-17T06:21:18.470Z,17.99
2019-01-17T06:25:18.215Z,17.87
2019-01-17T06:27:18.369Z,17.82
2019-01-17T06:31:18.326Z,17.79
2019-01-17T06:33:18.262Z,17.74
2019-01-17T06:37:18.410Z,17.67
2019-01-17T06:39:18.413Z,17.64
2019-01-17T06:43:18.488Z,17.55
2019-01-17T06:45:18.223Z,17.55
2019-01-17T06:49:18.342Z,17.48
2019-01-17T06:51:18.223Z,17.48
2019-01-17T06:55:18.213Z,17.39
2019-01-17T06:57:18.277Z,17.34
2019-01-17T07:01:18.450Z,17.26
2019-01-17T07:03:18.453Z,17.22
2019-01-17T07:07:19.168Z,17.16
2019-01-17T07:09:18.310Z,17.17
2019-01-17T07:13:18.235Z,17.14
2019-01-17T07:15:18.273Z,17.13
2019-01-17T07:19:18.209Z,17.10
2019-01-17T07:21:20.600Z,17.08
2019-01-17T07:25:18.235Z,17.07
2019-01-17T07:27:18.269Z,17.01
2019-01-17T07:31:18.265Z,17.00
2019-01-17T07:33:18.237Z,16.99
2019-01-17T07:37:18.252Z,16.95
2019-01-17T07:39:18.223Z,16.93
2019-01-17T07:43:18.235Z,16.86
2019-01-17T07:45:18.242Z,16.88
2019-01-17T07:49:18.257Z,16.90
2019-01-17T07:51:18.243Z,16.88
2019-01-17T07:55:18.240Z,16.84
2019-01-17T07:57:18.242Z,16.90
2019-01-17T08:01:18.276Z,17.09
2019-01-17T08:03:18.265Z,17.23
2019-01-17T08:07:18.257Z,17.60
2019-01-17T08:09:18.250Z,17.79
2019-01-17T08:13:18.244Z,18.25
2019-01-17T08:15:18.257Z,18.47
2019-01-17T08:19:18.301Z,18.83
2019-01-17T08:21:18.254Z,18.93
2019-01-17T08:25:18.265Z,19.14
2019-01-17T08:27:18.270Z,19.17
2019-01-17T08:31:18.271Z,19.28
2019-01-17T08:33:18.279Z,19.26
2019-01-17T08:37:18.299Z,19.38
2019-01-17T08:39:18.281Z,19.41
2019-01-17T08:43:18.268Z,19.41
2019-01-17T08:45:18.295Z,19.36
2019-01-17T08:49:18.257Z,19.37
2019-01-17T08:51:18.265Z,19.40
2019-01-17T08:55:18.314Z,19.44
2019-01-17T08:57:18.299Z,19.45
2019-01-17T09:01:18.288Z,19.51
2019-01-17T09:05:18.294Z,19.57
2019-01-17T09:07:18.299Z,19.60
2019-01-17T09:11:18.300Z,19.68
2019-01-17T09:13:18.332Z,19.70
2019-01-17T09:17:18.297Z,19.76
2019-01-17T09:19:18.274Z,19.81
2019-01-17T09:23:18.309Z,19.89
2019-01-17T09:25:18.305Z,19.93
2019-01-17T09:29:18.308Z,19.98
2019-01-17T09:31:18.290Z,20.00
2019-01-17T09:35:18.305Z,20.06
2019-01-17T09:37:18.310Z,20.07
2019-01-17T09:41:18.308Z,20.14
2019-01-17T09:43:18.339Z,20.17
2019-01-17T09:47:18.355Z,20.25
2019-01-17T09:49:18.312Z,20.27
2019-01-17T09:53:18.342Z,20.30
2019-01-17T09:55:18.333Z,20.31
2019-01-17T09:59:18.345Z,20.37
2019-01-17T10:01:18.360Z,20.39
2019-01-17T10:05:18.332Z,20.45
2019-01-17T10:07:18.349Z,20.49
2019-01-17T10:11:18.332Z,20.53
2019-01-17T10:13:18.371Z,20.57
2019-01-17T10:17:18.352Z,20.59
2019-01-17T10:19:18.340Z,20.59
2019-01-17T10:23:18.384Z,20.65
2019-01-17T10:25:18.371Z,20.65
2019-01-17T10:29:18.392Z,20.68
2019-01-17T10:31:18.391Z,20.70
2019-01-17T10:35:23.383Z,20.73
2019-01-17T10:37:18.372Z,20.72
2019-01-17T10:41:18.373Z,20.76
2019-01-17T10:43:18.374Z,20.79
2019-01-17T10:47:18.371Z,20.82
2019-01-17T10:49:24.942Z,20.83
2019-01-17T10:53:18.327Z,20.86
2019-01-17T10:55:18.352Z,20.85
2019-01-17T10:59:18.371Z,20.83
2019-01-17T11:01:18.363Z,20.83
2019-01-17T11:05:18.481Z,20.86
2019-01-17T11:07:18.380Z,20.89
2019-01-17T11:11:18.436Z,20.91
2019-01-17T11:13:18.372Z,20.91
2019-01-17T11:17:18.408Z,20.93
2019-01-17T11:19:18.353Z,20.93
2019-01-17T11:23:18.383Z,20.97
2019-01-17T11:25:18.344Z,20.98
2019-01-17T11:29:18.390Z,20.98
2019-01-17T11:31:18.364Z,20.99
2019-01-17T11:35:18.360Z,21.00
2019-01-17T11:37:18.355Z,21.00
2019-01-17T11:41:18.354Z,20.98
2019-01-17T11:43:18.366Z,20.98
2019-01-17T11:47:18.411Z,21.01
2019-01-17T11:49:18.421Z,21.01
2019-01-17T11:53:18.417Z,21.02
2019-01-17T11:55:18.384Z,21.04
2019-01-17T11:59:18.368Z,21.06
2019-01-17T12:01:18.378Z,21.08
2019-01-17T12:05:18.425Z,21.11
2019-01-17T12:07:18.432Z,21.12
2019-01-17T12:11:18.427Z,21.12
2019-01-17T12:13:18.450Z,21.12
2019-01-17T12:17:18.426Z,21.14
2019-01-17T12:19:18.580Z,21.13
2019-01-17T12:23:18.395Z,21.13
2019-01-17T12:25:18.424Z,21.14
2019-01-17T12:29:18.391Z,21.10
2019-01-17T12:31:18.415Z,21.08
2019-01-17T12:35:18.399Z,21.08
2019-01-17T12:37:18.423Z,21.06
2019-01-17T12:41:18.408Z,21.04
2019-01-17T12:43:18.418Z,21.03
2019-01-17T12:47:18.431Z,20.99
2019-01-17T12:49:18.430Z,20.97
2019-01-17T12:53:18.416Z,20.96
2019-01-17T12:55:18.463Z,20.97
2019-01-17T12:59:18.410Z,20.98
2019-01-17T13:01:18.422Z,20.97
2019-01-17T13:05:20.772Z,20.97
2019-01-17T13:07:18.406Z,20.99
2019-01-17T13:11:18.410Z,21.00
2019-01-17T13:13:18.411Z,21.00
2019-01-17T13:17:18.512Z,21.07
2019-01-17T13:19:18.466Z,21.10
2019-01-17T13:23:18.473Z,21.10
2019-01-17T13:25:18.431Z,21.13
2019-01-17T13:29:18.403Z,21.11
2019-01-17T13:31:18.441Z,21.12
2019-01-17T13:35:18.472Z,21.08
2019-01-17T13:37:18.538Z,21.04
2019-01-17T13:41:18.468Z,21.02
2019-01-17T13:43:18.582Z,20.98
2019-01-17T13:47:18.462Z,20.92
2019-01-17T13:49:18.610Z,20.94
2019-01-17T13:53:18.525Z,20.90
2019-01-17T13:55:18.550Z,20.87
2019-01-17T13:59:18.429Z,20.84
2019-01-17T14:01:18.466Z,20.82
2019-01-17T14:05:18.463Z,20.79
2019-01-17T14:07:18.476Z,20.78
2019-01-17T14:11:18.439Z,20.80
2019-01-17T14:13:18.449Z,20.78
2019-01-17T14:17:18.456Z,20.78
2019-01-17T14:19:18.451Z,20.79
2019-01-17T14:23:18.461Z,20.77
2019-01-17T14:25:18.494Z,20.76
2019-01-17T14:29:18.484Z,20.75
2019-01-17T14:31:18.516Z,20.77
2019-01-17T14:35:18.462Z,20.77
2019-01-17T14:37:18.476Z,20.77
2019-01-17T14:41:18.454Z,20.75
2019-01-17T14:43:18.470Z,20.74
2019-01-17T14:47:18.516Z,20.73
2019-01-17T14:49:18.474Z,20.75
2019-01-17T14:53:18.472Z,20.73
2019-01-17T14:55:18.478Z,20.72
2019-01-17T14:59:18.469Z,20.71
2019-01-17T15:01:18.475Z,20.70
2019-01-17T15:07:18.681Z,20.67
2019-01-17T15:09:18.517Z,20.66
2019-01-17T15:13:18.491Z,20.64
2019-01-17T15:15:18.528Z,20.63
2019-01-17T15:19:18.491Z,20.60
2019-01-17T15:21:18.524Z,20.61
2019-01-17T15:25:18.487Z,20.61
2019-01-17T15:27:18.511Z,20.61
2019-01-17T15:31:18.545Z,20.61
2019-01-17T15:33:18.506Z,20.61
2019-01-17T15:37:18.527Z,20.60
2019-01-17T15:39:18.538Z,20.60
2019-01-17T15:43:18.510Z,20.59
2019-01-17T15:45:18.611Z,20.57
2019-01-17T15:49:18.518Z,20.58
2019-01-17T15:51:18.546Z,20.59
2019-01-17T15:57:18.547Z,20.58
2019-01-17T15:59:23.204Z,20.58
2019-01-17T16:03:18.543Z,20.59
2019-01-17T16:05:18.577Z,20.61
2019-01-17T16:09:18.540Z,20.59
2019-01-17T16:11:18.679Z,20.61
2019-01-17T16:15:18.533Z,20.65
2019-01-17T16:17:18.550Z,20.70
2019-01-17T16:21:18.561Z,20.71
2019-01-17T16:23:18.578Z,20.75
2019-01-17T16:27:18.552Z,20.76
2019-01-17T16:29:18.538Z,20.80
2019-01-17T16:33:18.553Z,20.82
2019-01-17T16:35:18.545Z,20.85
2019-01-17T16:39:18.532Z,20.81
2019-01-17T16:41:18.562Z,20.80
2019-01-17T16:45:18.513Z,20.76
2019-01-17T16:47:18.526Z,20.75
2019-01-17T16:51:18.593Z,20.71
2019-01-17T16:55:18.600Z,20.68
2019-01-17T16:57:18.584Z,20.65
2019-01-17T17:01:18.575Z,20.61
2019-01-17T17:03:18.693Z,20.51
2019-01-17T17:07:18.557Z,20.56
2019-01-17T17:09:18.600Z,20.54
2019-01-17T17:13:18.572Z,20.64
2019-01-17T17:15:18.606Z,20.71
2019-01-17T17:19:18.569Z,20.84
2019-01-17T17:21:18.585Z,20.87
2019-01-17T17:27:18.612Z,20.96
2019-01-17T17:29:18.555Z,20.97
2019-01-17T17:33:18.575Z,21.05
2019-01-17T17:35:18.626Z,21.09
2019-01-17T17:39:18.585Z,21.06
2019-01-17T17:41:18.563Z,21.08
2019-01-17T17:45:18.554Z,21.09
2019-01-17T17:47:18.576Z,21.11
2019-01-17T17:51:18.597Z,21.11
2019-01-17T17:53:18.561Z,21.13
2019-01-17T17:57:18.581Z,21.18
2019-01-17T17:59:18.623Z,21.17
2019-01-17T18:03:18.620Z,21.21
2019-01-17T18:05:18.652Z,21.23
2019-01-17T18:09:18.558Z,21.13
2019-01-17T18:11:18.597Z,21.07
2019-01-17T18:15:19.480Z,21.01
2019-01-17T18:17:18.597Z,20.98
2019-01-17T18:21:18.634Z,20.95
2019-01-17T18:23:18.614Z,20.95
2019-01-17T18:27:18.613Z,20.93
2019-01-17T18:29:18.593Z,20.94
2019-01-17T18:33:18.592Z,21.01
2019-01-17T18:35:18.594Z,21.07
2019-01-17T18:39:18.649Z,21.13
2019-01-17T18:41:18.646Z,21.16
2019-01-17T18:45:18.607Z,21.21
2019-01-17T18:47:18.609Z,21.19
2019-01-17T18:51:18.638Z,21.20
2019-01-17T18:53:18.615Z,21.19
2019-01-17T18:57:18.630Z,21.20
2019-01-17T18:59:18.598Z,21.21
2019-01-17T19:03:18.635Z,21.21
2019-01-17T19:05:18.652Z,21.32
2019-01-17T19:09:18.648Z,21.37
2019-01-17T19:11:18.670Z,21.42
2019-01-17T19:15:18.629Z,21.47
2019-01-17T19:17:18.690Z,21.48
2019-01-17T19:21:18.645Z,21.47
2019-01-17T19:23:23.216Z,21.49
2019-01-17T19:27:18.684Z,21.53
2019-01-17T19:29:18.680Z,21.54
2019-01-17T19:33:18.734Z,21.53
2019-01-17T19:35:18.682Z,21.53
2019-01-17T19:39:18.681Z,21.54
2019-01-17T19:41:18.669Z,21.54
2019-01-17T19:47:18.634Z,21.56
2019-01-17T19:49:18.645Z,21.55
2019-01-17T19:55:18.719Z,21.54
2019-01-17T19:57:18.656Z,21.55
2019-01-17T20:01:18.659Z,21.54
2019-01-17T20:03:22.971Z,21.52
2019-01-17T20:07:18.674Z,21.53
2019-01-17T20:09:18.701Z,21.53
2019-01-17T20:13:18.685Z,21.50
2019-01-17T20:15:18.650Z,21.49
2019-01-17T20:19:18.682Z,21.48
2019-01-17T20:21:18.651Z,21.48
2019-01-17T20:25:18.714Z,21.46
2019-01-17T20:27:18.656Z,21.40
2019-01-17T20:31:18.637Z,21.45
2019-01-17T20:33:18.656Z,21.45
2019-01-17T20:37:18.660Z,21.43
2019-01-17T20:39:18.687Z,21.39
2019-01-17T20:43:18.688Z,21.36
2019-01-17T20:45:18.681Z,21.34
2019-01-17T20:49:18.681Z,21.33
2019-01-17T20:51:18.701Z,21.32
2019-01-17T20:55:18.705Z,21.29
2019-01-17T20:57:18.697Z,21.29
2019-01-17T21:01:18.702Z,21.29
2019-01-17T21:03:18.724Z,21.30
2019-01-17T21:07:18.727Z,21.30
2019-01-17T21:09:22.714Z,21.30
2019-01-17T21:13:18.724Z,21.30
2019-01-17T21:15:23.900Z,21.29
2019-01-17T21:19:18.696Z,21.30
2019-01-17T21:21:18.736Z,21.30
2019-01-17T21:25:18.722Z,21.28
2019-01-17T21:27:18.709Z,21.29
2019-01-17T21:31:18.708Z,21.29
2019-01-17T21:33:18.740Z,21.25
2019-01-17T21:37:18.721Z,21.21
2019-01-17T21:39:18.719Z,21.18
2019-01-17T21:43:18.750Z,21.13
2019-01-17T21:45:18.757Z,21.08
2019-01-17T21:49:18.773Z,21.05
2019-01-17T21:51:18.746Z,20.95
2019-01-17T21:55:20.185Z,20.91
2019-01-17T21:57:18.853Z,20.83
2019-01-17T22:01:18.698Z,20.79
2019-01-17T22:03:18.769Z,20.77
2019-01-17T22:07:18.724Z,20.70
2019-01-17T22:09:18.710Z,20.64
2019-01-17T22:13:18.781Z,20.50
2019-01-17T22:15:18.729Z,20.45
2019-01-17T22:19:18.733Z,20.35
2019-01-17T22:21:18.752Z,20.30
2019-01-17T22:25:23.943Z,20.21
2019-01-17T22:27:18.712Z,20.18
2019-01-17T22:31:18.768Z,20.12
2019-01-17T22:33:18.733Z,20.07
2019-01-17T22:37:18.718Z,20.01
2019-01-17T22:39:18.728Z,20.01
2019-01-17T22:43:18.765Z,19.92
2019-01-17T22:45:19.831Z,19.91
2019-01-17T22:49:18.794Z,19.87
2019-01-17T22:51:18.747Z,19.81
2019-01-17T22:55:18.772Z,19.76
2019-01-17T22:57:18.786Z,19.72
2019-01-17T23:01:18.755Z,19.69
2019-01-17T23:03:18.751Z,19.63
2019-01-17T23:07:18.796Z,19.58
2019-01-17T23:09:18.800Z,19.54
2019-01-17T23:13:18.795Z,19.52
2019-01-17T23:15:21.561Z,19.47
2019-01-17T23:19:18.733Z,19.42
2019-01-17T23:21:18.752Z,19.40
2019-01-17T23:25:18.754Z,19.36
2019-01-17T23:27:18.798Z,19.34
2019-01-17T23:31:18.805Z,19.31
2019-01-17T23:33:18.784Z,19.27
2019-01-17T23:37:18.786Z,19.22
2019-01-17T23:39:18.773Z,19.21
2019-01-17T23:43:18.820Z,19.11
2019-01-17T23:45:18.774Z,19.12
2019-01-17T23:49:18.773Z,19.09
2019-01-17T23:51:18.801Z,19.04
2019-01-17T23:55:18.800Z,19.01
2019-01-17T23:57:18.802Z,18.97
